sensor_id;sensor_type;location;lat;lon;timestamp;P1;durP1;ratioP1;P2;durP2;ratioP2
1122;SDS011;548;48.778;9.252;2022-10-26T00:01:03;20.17;;;18.97;;
1122;SDS011;548;48.778;9.252;2022-10-26T00:03:32;21.07;;;19.53;;
1122;SDS011;548;48.778;9.252;2022-10-26T00:06:06;19.60;;;18.17;;
1122;SDS011;548;48.778;9.252;2022-10-26T00:08:34;19.73;;;18.07;;
1122;SDS011;548;48.778;9.252;2022-10-26T00:11:03;21.40;;;19.60;;
1122;SDS011;548;48.778;9.252;2022-10-26T00:13:30;20.73;;;19.13;;
1122;SDS011;548;48.778;9.252;2022-10-26T00:15:57;18.83;;;17.63;;
1122;SDS011;548;48.778;9.252;2022-10-26T00:18:24;19.13;;;18.10;;
1122;SDS011;548;48.778;9.252;2022-10-26T00:20:51;22.20;;;19.80;;
1122;SDS011;548;48.778;9.252;2022-10-26T00:23:18;20.50;;;18.70;;
1122;SDS011;548;48.778;9.252;2022-10-26T00:25:52;22.67;;;20.77;;
1122;SDS011;548;48.778;9.252;2022-10-26T00:28:21;19.17;;;18.07;;
1122;SDS011;548;48.778;9.252;2022-10-26T00:30:48;20.60;;;19.20;;
1122;SDS011;548;48.778;9.252;2022-10-26T00:33:15;20.00;;;18.37;;
1122;SDS011;548;48.778;9.252;2022-10-26T00:35:46;19.37;;;18.03;;
1122;SDS011;548;48.778;9.252;2022-10-26T00:38:13;18.47;;;17.47;;
1122;SDS011;548;48.778;9.252;2022-10-26T00:40:40;18.80;;;17.70;;
1122;SDS011;548;48.778;9.252;2022-10-26T00:43:09;18.93;;;18.03;;
1122;SDS011;548;48.778;9.252;2022-10-26T00:45:42;19.77;;;18.13;;
1122;SDS011;548;48.778;9.252;2022-10-26T00:48:13;18.97;;;17.77;;
1122;SDS011;548;48.778;9.252;2022-10-26T00:50:43;19.00;;;17.83;;
1122;SDS011;548;48.778;9.252;2022-10-26T00:53:12;18.80;;;17.70;;
1122;SDS011;548;48.778;9.252;2022-10-26T00:55:40;18.03;;;17.10;;
1122;SDS011;548;48.778;9.252;2022-10-26T00:58:11;21.20;;;19.90;;
1122;SDS011;548;48.778;9.252;2022-10-26T01:00:38;20.13;;;18.80;;
1122;SDS011;548;48.778;9.252;2022-10-26T01:03:08;20.93;;;19.40;;
1122;SDS011;548;48.778;9.252;2022-10-26T01:05:36;20.37;;;18.97;;
1122;SDS011;548;48.778;9.252;2022-10-26T01:08:05;20.20;;;18.90;;
1122;SDS011;548;48.778;9.252;2022-10-26T01:10:34;21.03;;;19.47;;
1122;SDS011;548;48.778;9.252;2022-10-26T01:13:02;20.43;;;19.00;;
1122;SDS011;548;48.778;9.252;2022-10-26T01:15:31;21.73;;;20.33;;
1122;SDS011;548;48.778;9.252;2022-10-26T01:18:05;19.63;;;18.63;;
1122;SDS011;548;48.778;9.252;2022-10-26T01:20:55;19.80;;;18.70;;
1122;SDS011;548;48.778;9.252;2022-10-26T01:23:37;19.30;;;18.30;;
1122;SDS011;548;48.778;9.252;2022-10-26T01:26:28;19.43;;;18.23;;
1122;SDS011;548;48.778;9.252;2022-10-26T01:29:23;18.53;;;17.60;;
1122;SDS011;548;48.778;9.252;2022-10-26T01:32:03;19.87;;;18.13;;
1122;SDS011;548;48.778;9.252;2022-10-26T01:34:35;18.37;;;17.17;;
1122;SDS011;548;48.778;9.252;2022-10-26T01:37:08;19.67;;;18.47;;
1122;SDS011;548;48.778;9.252;2022-10-26T01:39:40;19.63;;;18.33;;
1122;SDS011;548;48.778;9.252;2022-10-26T01:42:11;19.97;;;18.77;;
1122;SDS011;548;48.778;9.252;2022-10-26T01:44:41;22.13;;;20.30;;
1122;SDS011;548;48.778;9.252;2022-10-26T01:47:13;20.60;;;19.10;;
1122;SDS011;548;48.778;9.252;2022-10-26T01:49:43;20.87;;;19.57;;
1122;SDS011;548;48.778;9.252;2022-10-26T01:52:13;22.57;;;20.77;;
1122;SDS011;548;48.778;9.252;2022-10-26T01:54:40;21.50;;;20.20;;
1122;SDS011;548;48.778;9.252;2022-10-26T01:57:07;21.53;;;20.10;;
1122;SDS011;548;48.778;9.252;2022-10-26T01:59:40;21.23;;;19.93;;
1122;SDS011;548;48.778;9.252;2022-10-26T02:08:02;29.30;;;27.47;;
1122;SDS011;548;48.778;9.252;2022-10-26T02:10:42;35.07;;;32.67;;
1122;SDS011;548;48.778;9.252;2022-10-26T02:13:15;35.10;;;32.70;;
1122;SDS011;548;48.778;9.252;2022-10-26T02:15:47;34.87;;;31.93;;
1122;SDS011;548;48.778;9.252;2022-10-26T02:18:22;33.77;;;31.33;;
1122;SDS011;548;48.778;9.252;2022-10-26T02:20:56;33.27;;;30.57;;
1122;SDS011;548;48.778;9.252;2022-10-26T02:23:26;33.97;;;31.80;;
1122;SDS011;548;48.778;9.252;2022-10-26T02:25:55;32.03;;;30.10;;
1122;SDS011;548;48.778;9.252;2022-10-26T02:28:26;32.83;;;30.77;;
1122;SDS011;548;48.778;9.252;2022-10-26T02:30:57;33.33;;;31.07;;
1122;SDS011;548;48.778;9.252;2022-10-26T02:33:28;31.93;;;30.00;;
1122;SDS011;548;48.778;9.252;2022-10-26T02:35:59;33.07;;;31.00;;
1122;SDS011;548;48.778;9.252;2022-10-26T02:38:27;33.37;;;31.27;;
1122;SDS011;548;48.778;9.252;2022-10-26T02:40:56;35.50;;;33.17;;
1122;SDS011;548;48.778;9.252;2022-10-26T02:43:24;32.70;;;30.70;;
1122;SDS011;548;48.778;9.252;2022-10-26T02:45:53;35.10;;;32.57;;
1122;SDS011;548;48.778;9.252;2022-10-26T02:48:24;33.87;;;31.87;;
1122;SDS011;548;48.778;9.252;2022-10-26T02:50:55;33.03;;;31.13;;
1122;SDS011;548;48.778;9.252;2022-10-26T02:53:26;34.50;;;32.40;;
1122;SDS011;548;48.778;9.252;2022-10-26T02:55:57;35.47;;;33.33;;
1122;SDS011;548;48.778;9.252;2022-10-26T02:58:29;35.23;;;32.93;;
1122;SDS011;548;48.778;9.252;2022-10-26T03:00:58;35.53;;;33.53;;
1122;SDS011;548;48.778;9.252;2022-10-26T03:03:26;35.23;;;32.80;;
1122;SDS011;548;48.778;9.252;2022-10-26T03:05:53;32.80;;;30.77;;
1122;SDS011;548;48.778;9.252;2022-10-26T03:08:20;35.13;;;32.20;;
1122;SDS011;548;48.778;9.252;2022-10-26T03:10:47;36.03;;;32.53;;
1122;SDS011;548;48.778;9.252;2022-10-26T03:13:13;35.70;;;33.37;;
1122;SDS011;548;48.778;9.252;2022-10-26T03:15:40;33.63;;;31.47;;
1122;SDS011;548;48.778;9.252;2022-10-26T03:18:07;35.00;;;32.30;;
1122;SDS011;548;48.778;9.252;2022-10-26T03:20:35;34.17;;;32.03;;
1122;SDS011;548;48.778;9.252;2022-10-26T03:23:02;34.87;;;32.60;;
1122;SDS011;548;48.778;9.252;2022-10-26T03:25:28;37.07;;;33.70;;
1122;SDS011;548;48.778;9.252;2022-10-26T03:27:55;34.00;;;31.40;;
1122;SDS011;548;48.778;9.252;2022-10-26T03:30:23;33.80;;;31.30;;
1122;SDS011;548;48.778;9.252;2022-10-26T03:32:49;34.57;;;32.13;;
1122;SDS011;548;48.778;9.252;2022-10-26T03:35:16;34.30;;;31.87;;
1122;SDS011;548;48.778;9.252;2022-10-26T03:37:44;33.30;;;31.40;;
1122;SDS011;548;48.778;9.252;2022-10-26T03:40:11;32.53;;;30.03;;
1122;SDS011;548;48.778;9.252;2022-10-26T03:42:38;32.73;;;30.67;;
1122;SDS011;548;48.778;9.252;2022-10-26T03:45:05;31.33;;;29.43;;
1122;SDS011;548;48.778;9.252;2022-10-26T03:47:33;31.97;;;29.87;;
1122;SDS011;548;48.778;9.252;2022-10-26T03:50:05;29.33;;;27.43;;
1122;SDS011;548;48.778;9.252;2022-10-26T03:52:32;28.87;;;26.90;;
1122;SDS011;548;48.778;9.252;2022-10-26T03:55:00;25.63;;;24.13;;
1122;SDS011;548;48.778;9.252;2022-10-26T03:57:27;24.40;;;22.90;;
1122;SDS011;548;48.778;9.252;2022-10-26T03:59:54;22.47;;;21.27;;
1122;SDS011;548;48.778;9.252;2022-10-26T04:02:20;20.53;;;19.53;;
1122;SDS011;548;48.778;9.252;2022-10-26T04:04:47;19.73;;;18.73;;
1122;SDS011;548;48.778;9.252;2022-10-26T04:07:14;19.30;;;18.13;;
1122;SDS011;548;48.778;9.252;2022-10-26T04:09:41;18.77;;;17.87;;
1122;SDS011;548;48.778;9.252;2022-10-26T04:12:09;18.67;;;17.47;;
1122;SDS011;548;48.778;9.252;2022-10-26T04:17:11;19.50;;;18.50;;
1122;SDS011;548;48.778;9.252;2022-10-26T04:19:37;20.07;;;19.07;;
1122;SDS011;548;48.778;9.252;2022-10-26T04:22:04;20.80;;;19.70;;
1122;SDS011;548;48.778;9.252;2022-10-26T04:24:31;21.03;;;19.50;;
1122;SDS011;548;48.778;9.252;2022-10-26T04:26:57;22.03;;;20.53;;
1122;SDS011;548;48.778;9.252;2022-10-26T04:29:26;21.70;;;20.27;;
1122;SDS011;548;48.778;9.252;2022-10-26T04:31:52;21.83;;;20.17;;
1122;SDS011;548;48.778;9.252;2022-10-26T04:34:19;20.90;;;19.80;;
1122;SDS011;548;48.778;9.252;2022-10-26T04:36:46;28.67;;;27.27;;
1122;SDS011;548;48.778;9.252;2022-10-26T04:39:12;35.93;;;33.43;;
1122;SDS011;548;48.778;9.252;2022-10-26T04:41:39;35.97;;;33.20;;
1122;SDS011;548;48.778;9.252;2022-10-26T04:44:06;37.20;;;34.70;;
1122;SDS011;548;48.778;9.252;2022-10-26T04:46:34;33.60;;;31.70;;
1122;SDS011;548;48.778;9.252;2022-10-26T04:49:01;34.10;;;31.80;;
1122;SDS011;548;48.778;9.252;2022-10-26T04:51:27;34.93;;;32.73;;
1122;SDS011;548;48.778;9.252;2022-10-26T04:53:54;34.30;;;32.40;;
1122;SDS011;548;48.778;9.252;2022-10-26T04:56:22;32.10;;;30.40;;
1122;SDS011;548;48.778;9.252;2022-10-26T04:58:49;32.60;;;30.40;;
1122;SDS011;548;48.778;9.252;2022-10-26T05:01:18;31.97;;;29.97;;
1122;SDS011;548;48.778;9.252;2022-10-26T05:03:48;34.80;;;32.57;;
1122;SDS011;548;48.778;9.252;2022-10-26T05:06:15;35.00;;;32.63;;
1122;SDS011;548;48.778;9.252;2022-10-26T05:08:42;35.03;;;32.80;;
1122;SDS011;548;48.778;9.252;2022-10-26T05:14:03;34.80;;;32.40;;
1122;SDS011;548;48.778;9.252;2022-10-26T05:16:30;33.20;;;31.00;;
1122;SDS011;548;48.778;9.252;2022-10-26T05:18:58;30.83;;;28.83;;
1122;SDS011;548;48.778;9.252;2022-10-26T05:21:25;26.97;;;25.77;;
1122;SDS011;548;48.778;9.252;2022-10-26T05:23:52;25.87;;;24.43;;
1122;SDS011;548;48.778;9.252;2022-10-26T05:26:19;24.20;;;23.00;;
1122;SDS011;548;48.778;9.252;2022-10-26T05:28:46;23.60;;;22.10;;
1122;SDS011;548;48.778;9.252;2022-10-26T05:31:13;24.70;;;23.03;;
1122;SDS011;548;48.778;9.252;2022-10-26T05:33:40;23.27;;;21.87;;
1122;SDS011;548;48.778;9.252;2022-10-26T05:36:08;26.37;;;24.17;;
1122;SDS011;548;48.778;9.252;2022-10-26T05:38:35;24.53;;;22.87;;
1122;SDS011;548;48.778;9.252;2022-10-26T05:41:02;21.63;;;20.20;;
1122;SDS011;548;48.778;9.252;2022-10-26T05:43:29;20.27;;;19.23;;
1122;SDS011;548;48.778;9.252;2022-10-26T05:45:55;22.47;;;21.10;;
1122;SDS011;548;48.778;9.252;2022-10-26T05:48:22;24.80;;;23.27;;
1122;SDS011;548;48.778;9.252;2022-10-26T05:50:49;21.07;;;20.07;;
1122;SDS011;548;48.778;9.252;2022-10-26T05:53:17;19.67;;;18.37;;
1122;SDS011;548;48.778;9.252;2022-10-26T05:55:44;19.87;;;18.97;;
1122;SDS011;548;48.778;9.252;2022-10-26T05:58:12;20.80;;;19.60;;
1122;SDS011;548;48.778;9.252;2022-10-26T06:00:43;18.63;;;17.83;;
1122;SDS011;548;48.778;9.252;2022-10-26T06:03:23;18.90;;;18.00;;
1122;SDS011;548;48.778;9.252;2022-10-26T06:06:01;20.57;;;19.40;;
1122;SDS011;548;48.778;9.252;2022-10-26T06:08:30;23.00;;;21.60;;
1122;SDS011;548;48.778;9.252;2022-10-26T06:10:57;27.40;;;25.40;;
1122;SDS011;548;48.778;9.252;2022-10-26T06:13:25;29.20;;;27.13;;
1122;SDS011;548;48.778;9.252;2022-10-26T06:16:00;29.37;;;27.13;;
1122;SDS011;548;48.778;9.252;2022-10-26T06:18:35;26.13;;;24.37;;
1122;SDS011;548;48.778;9.252;2022-10-26T06:21:14;30.63;;;27.93;;
1122;SDS011;548;48.778;9.252;2022-10-26T06:24:03;27.00;;;24.50;;
1122;SDS011;548;48.778;9.252;2022-10-26T06:26:36;23.83;;;22.30;;
1122;SDS011;548;48.778;9.252;2022-10-26T06:29:13;24.73;;;22.87;;
1122;SDS011;548;48.778;9.252;2022-10-26T06:31:47;22.93;;;21.77;;
1122;SDS011;548;48.778;9.252;2022-10-26T06:34:15;21.00;;;19.70;;
1122;SDS011;548;48.778;9.252;2022-10-26T06:36:48;21.77;;;20.67;;
1122;SDS011;548;48.778;9.252;2022-10-26T06:39:25;23.53;;;22.20;;
1122;SDS011;548;48.778;9.252;2022-10-26T06:41:55;22.10;;;20.90;;
1122;SDS011;548;48.778;9.252;2022-10-26T06:44:22;23.10;;;21.30;;
1122;SDS011;548;48.778;9.252;2022-10-26T06:46:51;22.20;;;20.90;;
1122;SDS011;548;48.778;9.252;2022-10-26T06:49:26;25.40;;;24.10;;
1122;SDS011;548;48.778;9.252;2022-10-26T06:51:57;27.73;;;26.13;;
1122;SDS011;548;48.778;9.252;2022-10-26T06:54:29;27.20;;;25.50;;
1122;SDS011;548;48.778;9.252;2022-10-26T06:57:07;27.93;;;26.00;;
1122;SDS011;548;48.778;9.252;2022-10-26T06:59:36;32.40;;;30.60;;
1122;SDS011;548;48.778;9.252;2022-10-26T07:02:07;30.60;;;29.00;;
1122;SDS011;548;48.778;9.252;2022-10-26T07:04:34;33.30;;;31.40;;
1122;SDS011;548;48.778;9.252;2022-10-26T07:07:01;33.13;;;31.13;;
1122;SDS011;548;48.778;9.252;2022-10-26T07:09:29;32.80;;;30.87;;
1122;SDS011;548;48.778;9.252;2022-10-26T07:11:56;33.60;;;31.20;;
1122;SDS011;548;48.778;9.252;2022-10-26T07:14:23;32.90;;;30.90;;
1122;SDS011;548;48.778;9.252;2022-10-26T07:16:49;31.67;;;29.50;;
1122;SDS011;548;48.778;9.252;2022-10-26T07:19:17;30.33;;;28.47;;
1122;SDS011;548;48.778;9.252;2022-10-26T07:21:43;29.10;;;27.10;;
1122;SDS011;548;48.778;9.252;2022-10-26T07:24:10;26.40;;;24.80;;
1122;SDS011;548;48.778;9.252;2022-10-26T07:26:38;22.37;;;21.17;;
1122;SDS011;548;48.778;9.252;2022-10-26T07:29:05;21.00;;;19.80;;
1122;SDS011;548;48.778;9.252;2022-10-26T07:31:32;18.83;;;17.53;;
1122;SDS011;548;48.778;9.252;2022-10-26T07:33:59;19.83;;;18.23;;
1122;SDS011;548;48.778;9.252;2022-10-26T07:36:27;19.07;;;17.87;;
1122;SDS011;548;48.778;9.252;2022-10-26T07:38:54;18.90;;;17.90;;
1122;SDS011;548;48.778;9.252;2022-10-26T07:41:21;20.50;;;19.30;;
1122;SDS011;548;48.778;9.252;2022-10-26T07:43:49;21.73;;;20.03;;
1122;SDS011;548;48.778;9.252;2022-10-26T07:46:16;18.80;;;17.70;;
1122;SDS011;548;48.778;9.252;2022-10-26T07:48:42;19.00;;;17.53;;
1122;SDS011;548;48.778;9.252;2022-10-26T07:51:09;17.57;;;16.57;;
1122;SDS011;548;48.778;9.252;2022-10-26T07:53:36;17.00;;;16.10;;
1122;SDS011;548;48.778;9.252;2022-10-26T07:56:03;15.87;;;15.17;;
1122;SDS011;548;48.778;9.252;2022-10-26T07:58:30;16.57;;;15.37;;
1122;SDS011;548;48.778;9.252;2022-10-26T08:01:03;17.57;;;16.47;;
1122;SDS011;548;48.778;9.252;2022-10-26T08:03:31;19.87;;;18.37;;
1122;SDS011;548;48.778;9.252;2022-10-26T08:05:57;19.30;;;17.90;;
1122;SDS011;548;48.778;9.252;2022-10-26T08:08:24;17.70;;;16.70;;
1122;SDS011;548;48.778;9.252;2022-10-26T08:10:51;16.73;;;16.00;;
1122;SDS011;548;48.778;9.252;2022-10-26T08:13:18;18.47;;;17.47;;
1122;SDS011;548;48.778;9.252;2022-10-26T08:15:45;18.07;;;16.53;;
1122;SDS011;548;48.778;9.252;2022-10-26T08:18:16;17.93;;;16.70;;
1122;SDS011;548;48.778;9.252;2022-10-26T08:20:45;19.70;;;18.33;;
1122;SDS011;548;48.778;9.252;2022-10-26T08:23:12;20.07;;;18.57;;
1122;SDS011;548;48.778;9.252;2022-10-26T08:25:39;19.87;;;18.57;;
1122;SDS011;548;48.778;9.252;2022-10-26T08:28:06;20.47;;;19.27;;
1122;SDS011;548;48.778;9.252;2022-10-26T08:30:33;18.97;;;17.63;;
1122;SDS011;548;48.778;9.252;2022-10-26T08:33:00;19.23;;;18.03;;
1122;SDS011;548;48.778;9.252;2022-10-26T08:35:30;19.37;;;18.37;;
1122;SDS011;548;48.778;9.252;2022-10-26T08:37:57;18.10;;;17.00;;
1122;SDS011;548;48.778;9.252;2022-10-26T08:40:24;19.87;;;18.60;;
1122;SDS011;548;48.778;9.252;2022-10-26T08:42:54;20.60;;;19.30;;
1122;SDS011;548;48.778;9.252;2022-10-26T08:45:27;22.93;;;20.73;;
1122;SDS011;548;48.778;9.252;2022-10-26T08:47:57;18.40;;;17.13;;
1122;SDS011;548;48.778;9.252;2022-10-26T08:50:31;19.13;;;17.37;;
1122;SDS011;548;48.778;9.252;2022-10-26T08:53:00;17.60;;;16.33;;
1122;SDS011;548;48.778;9.252;2022-10-26T08:55:37;20.07;;;18.80;;
1122;SDS011;548;48.778;9.252;2022-10-26T08:58:10;20.00;;;18.60;;
1122;SDS011;548;48.778;9.252;2022-10-26T09:00:41;22.03;;;20.43;;
1122;SDS011;548;48.778;9.252;2022-10-26T09:03:10;22.27;;;20.40;;
1122;SDS011;548;48.778;9.252;2022-10-26T09:05:42;22.10;;;20.50;;
1122;SDS011;548;48.778;9.252;2022-10-26T09:08:16;19.93;;;18.40;;
1122;SDS011;548;48.778;9.252;2022-10-26T09:10:52;20.33;;;18.87;;
1122;SDS011;548;48.778;9.252;2022-10-26T09:13:28;18.67;;;17.43;;
1122;SDS011;548;48.778;9.252;2022-10-26T09:16:05;17.93;;;16.60;;
1122;SDS011;548;48.778;9.252;2022-10-26T09:18:39;16.70;;;15.80;;
1122;SDS011;548;48.778;9.252;2022-10-26T09:21:16;16.83;;;16.03;;
1122;SDS011;548;48.778;9.252;2022-10-26T09:23:57;17.07;;;16.13;;
1122;SDS011;548;48.778;9.252;2022-10-26T09:26:28;16.33;;;15.53;;
1122;SDS011;548;48.778;9.252;2022-10-26T09:29:00;15.27;;;14.57;;
1122;SDS011;548;48.778;9.252;2022-10-26T09:31:31;15.50;;;14.60;;
1122;SDS011;548;48.778;9.252;2022-10-26T09:34:03;15.77;;;14.77;;
1122;SDS011;548;48.778;9.252;2022-10-26T09:36:34;15.90;;;15.10;;
1122;SDS011;548;48.778;9.252;2022-10-26T09:39:03;15.37;;;14.30;;
1122;SDS011;548;48.778;9.252;2022-10-26T09:41:41;16.20;;;15.40;;
1122;SDS011;548;48.778;9.252;2022-10-26T09:44:15;16.43;;;15.13;;
1122;SDS011;548;48.778;9.252;2022-10-26T09:46:51;16.13;;;15.10;;
1122;SDS011;548;48.778;9.252;2022-10-26T09:49:22;15.77;;;14.87;;
1122;SDS011;548;48.778;9.252;2022-10-26T09:51:56;14.93;;;14.13;;
1122;SDS011;548;48.778;9.252;2022-10-26T09:54:23;15.80;;;14.90;;
1122;SDS011;548;48.778;9.252;2022-10-26T09:56:50;15.53;;;14.57;;
1122;SDS011;548;48.778;9.252;2022-10-26T09:59:21;15.93;;;14.83;;
1122;SDS011;548;48.778;9.252;2022-10-26T10:01:49;18.13;;;16.73;;
1122;SDS011;548;48.778;9.252;2022-10-26T10:04:17;16.00;;;14.80;;
1122;SDS011;548;48.778;9.252;2022-10-26T10:06:46;16.37;;;15.17;;
1122;SDS011;548;48.778;9.252;2022-10-26T10:09:16;16.97;;;15.90;;
1122;SDS011;548;48.778;9.252;2022-10-26T10:11:45;14.83;;;13.73;;
1122;SDS011;548;48.778;9.252;2022-10-26T10:14:19;18.00;;;16.47;;
1122;SDS011;548;48.778;9.252;2022-10-26T10:16:53;17.07;;;15.67;;
1122;SDS011;548;48.778;9.252;2022-10-26T10:19:22;17.53;;;16.43;;
1122;SDS011;548;48.778;9.252;2022-10-26T10:21:52;18.13;;;16.60;;
1122;SDS011;548;48.778;9.252;2022-10-26T10:24:24;16.17;;;14.97;;
1122;SDS011;548;48.778;9.252;2022-10-26T10:26:56;18.20;;;17.10;;
1122;SDS011;548;48.778;9.252;2022-10-26T10:29:25;18.13;;;16.80;;
1122;SDS011;548;48.778;9.252;2022-10-26T10:31:54;17.70;;;16.33;;
1122;SDS011;548;48.778;9.252;2022-10-26T10:34:22;16.37;;;15.30;;
1122;SDS011;548;48.778;9.252;2022-10-26T10:36:48;18.40;;;17.10;;
1122;SDS011;548;48.778;9.252;2022-10-26T10:42:15;17.40;;;16.30;;
1122;SDS011;548;48.778;9.252;2022-10-26T10:44:43;17.07;;;15.73;;
1122;SDS011;548;48.778;9.252;2022-10-26T10:47:17;15.07;;;14.23;;
1122;SDS011;548;48.778;9.252;2022-10-26T10:49:51;15.63;;;14.63;;
1122;SDS011;548;48.778;9.252;2022-10-26T10:52:22;15.40;;;14.27;;
1122;SDS011;548;48.778;9.252;2022-10-26T10:54:54;15.07;;;14.17;;
1122;SDS011;548;48.778;9.252;2022-10-26T10:57:29;15.80;;;14.50;;
1122;SDS011;548;48.778;9.252;2022-10-26T11:00:03;14.60;;;13.73;;
1122;SDS011;548;48.778;9.252;2022-10-26T11:02:38;14.50;;;13.70;;
1122;SDS011;548;48.778;9.252;2022-10-26T11:05:37;15.83;;;14.50;;
1122;SDS011;548;48.778;9.252;2022-10-26T11:08:16;14.77;;;14.10;;
1122;SDS011;548;48.778;9.252;2022-10-26T11:10:49;14.50;;;13.60;;
1122;SDS011;548;48.778;9.252;2022-10-26T11:13:18;15.50;;;14.40;;
1122;SDS011;548;48.778;9.252;2022-10-26T11:15:49;16.17;;;14.97;;
1122;SDS011;548;48.778;9.252;2022-10-26T11:18:20;16.10;;;15.00;;
1122;SDS011;548;48.778;9.252;2022-10-26T11:20:53;15.33;;;14.60;;
1122;SDS011;548;48.778;9.252;2022-10-26T11:23:28;15.07;;;14.10;;
1122;SDS011;548;48.778;9.252;2022-10-26T11:26:05;16.00;;;15.20;;
1122;SDS011;548;48.778;9.252;2022-10-26T11:28:38;14.97;;;14.20;;
1122;SDS011;548;48.778;9.252;2022-10-26T11:31:12;16.20;;;15.20;;
1122;SDS011;548;48.778;9.252;2022-10-26T11:33:44;16.37;;;15.27;;
1122;SDS011;548;48.778;9.252;2022-10-26T11:36:19;15.47;;;14.47;;
1122;SDS011;548;48.778;9.252;2022-10-26T11:38:50;15.57;;;14.77;;
1122;SDS011;548;48.778;9.252;2022-10-26T11:41:25;15.83;;;14.87;;
1122;SDS011;548;48.778;9.252;2022-10-26T11:44:00;14.87;;;13.83;;
1122;SDS011;548;48.778;9.252;2022-10-26T11:46:35;15.23;;;14.33;;
1122;SDS011;548;48.778;9.252;2022-10-26T11:49:04;14.67;;;13.83;;
1122;SDS011;548;48.778;9.252;2022-10-26T11:51:40;13.47;;;12.67;;
1122;SDS011;548;48.778;9.252;2022-10-26T11:54:13;14.43;;;13.53;;
1122;SDS011;548;48.778;9.252;2022-10-26T11:56:46;14.53;;;13.93;;
1122;SDS011;548;48.778;9.252;2022-10-26T11:59:16;15.50;;;14.50;;
1122;SDS011;548;48.778;9.252;2022-10-26T12:01:46;14.93;;;13.77;;
1122;SDS011;548;48.778;9.252;2022-10-26T12:04:15;15.17;;;14.27;;
1122;SDS011;548;48.778;9.252;2022-10-26T12:06:44;15.73;;;14.80;;
1122;SDS011;548;48.778;9.252;2022-10-26T12:09:13;15.80;;;15.10;;
1122;SDS011;548;48.778;9.252;2022-10-26T12:11:44;15.47;;;14.77;;
1122;SDS011;548;48.778;9.252;2022-10-26T12:14:18;15.53;;;14.47;;
1122;SDS011;548;48.778;9.252;2022-10-26T12:16:52;15.27;;;14.57;;
1122;SDS011;548;48.778;9.252;2022-10-26T12:19:25;15.87;;;14.77;;
1122;SDS011;548;48.778;9.252;2022-10-26T12:21:56;16.10;;;14.93;;
1122;SDS011;548;48.778;9.252;2022-10-26T12:24:24;14.90;;;14.20;;
1122;SDS011;548;48.778;9.252;2022-10-26T12:26:54;15.10;;;14.30;;
1122;SDS011;548;48.778;9.252;2022-10-26T12:29:29;15.20;;;14.50;;
1122;SDS011;548;48.778;9.252;2022-10-26T12:32:47;15.80;;;14.50;;
1122;SDS011;548;48.778;9.252;2022-10-26T12:35:32;15.57;;;14.60;;
1122;SDS011;548;48.778;9.252;2022-10-26T12:41:17;15.23;;;14.50;;
1122;SDS011;548;48.778;9.252;2022-10-26T12:43:46;14.50;;;13.60;;
1122;SDS011;548;48.778;9.252;2022-10-26T12:52:41;14.50;;;13.63;;
1122;SDS011;548;48.778;9.252;2022-10-26T12:58:19;13.00;;;12.40;;
1122;SDS011;548;48.778;9.252;2022-10-26T13:01:09;14.00;;;13.20;;
1122;SDS011;548;48.778;9.252;2022-10-26T13:04:07;15.03;;;14.07;;
1122;SDS011;548;48.778;9.252;2022-10-26T13:06:47;14.60;;;13.70;;
1122;SDS011;548;48.778;9.252;2022-10-26T13:09:27;14.00;;;13.30;;
1122;SDS011;548;48.778;9.252;2022-10-26T13:11:57;14.10;;;13.50;;
1122;SDS011;548;48.778;9.252;2022-10-26T13:14:28;14.23;;;13.63;;
1122;SDS011;548;48.778;9.252;2022-10-26T13:16:59;13.87;;;13.27;;
1122;SDS011;548;48.778;9.252;2022-10-26T13:19:29;14.37;;;13.50;;
1122;SDS011;548;48.778;9.252;2022-10-26T13:22:11;15.07;;;14.07;;
1122;SDS011;548;48.778;9.252;2022-10-26T13:24:44;13.60;;;13.00;;
1122;SDS011;548;48.778;9.252;2022-10-26T13:27:21;14.43;;;13.63;;
1122;SDS011;548;48.778;9.252;2022-10-26T13:30:18;15.43;;;14.33;;
1122;SDS011;548;48.778;9.252;2022-10-26T13:33:15;15.77;;;14.87;;
1122;SDS011;548;48.778;9.252;2022-10-26T13:35:46;15.90;;;15.10;;
1122;SDS011;548;48.778;9.252;2022-10-26T13:38:14;14.23;;;13.53;;
1122;SDS011;548;48.778;9.252;2022-10-26T13:40:46;15.30;;;14.57;;
1122;SDS011;548;48.778;9.252;2022-10-26T13:43:15;14.77;;;13.60;;
1122;SDS011;548;48.778;9.252;2022-10-26T13:45:47;14.23;;;13.40;;
1122;SDS011;548;48.778;9.252;2022-10-26T13:48:21;15.23;;;13.93;;
1122;SDS011;548;48.778;9.252;2022-10-26T13:50:54;14.57;;;13.80;;
1122;SDS011;548;48.778;9.252;2022-10-26T13:53:23;14.63;;;13.67;;
1122;SDS011;548;48.778;9.252;2022-10-26T13:55:59;14.10;;;13.40;;
1122;SDS011;548;48.778;9.252;2022-10-26T13:58:30;14.73;;;14.03;;
1122;SDS011;548;48.778;9.252;2022-10-26T14:01:02;14.23;;;13.53;;
1122;SDS011;548;48.778;9.252;2022-10-26T14:03:38;15.17;;;14.47;;
1122;SDS011;548;48.778;9.252;2022-10-26T14:06:07;15.37;;;14.23;;
1122;SDS011;548;48.778;9.252;2022-10-26T14:08:41;14.43;;;13.60;;
1122;SDS011;548;48.778;9.252;2022-10-26T14:11:12;14.30;;;13.40;;
1122;SDS011;548;48.778;9.252;2022-10-26T14:13:41;14.63;;;13.83;;
1122;SDS011;548;48.778;9.252;2022-10-26T14:16:09;14.73;;;13.43;;
1122;SDS011;548;48.778;9.252;2022-10-26T14:18:36;14.03;;;13.30;;
1122;SDS011;548;48.778;9.252;2022-10-26T14:21:04;13.60;;;12.80;;
1122;SDS011;548;48.778;9.252;2022-10-26T14:23:34;15.00;;;14.10;;
1122;SDS011;548;48.778;9.252;2022-10-26T14:26:02;13.83;;;12.80;;
1122;SDS011;548;48.778;9.252;2022-10-26T14:28:31;14.23;;;13.63;;
1122;SDS011;548;48.778;9.252;2022-10-26T14:31:11;14.87;;;13.97;;
1122;SDS011;548;48.778;9.252;2022-10-26T14:33:39;14.30;;;13.63;;
1122;SDS011;548;48.778;9.252;2022-10-26T14:36:06;16.23;;;15.43;;
1122;SDS011;548;48.778;9.252;2022-10-26T14:38:35;14.90;;;13.93;;
1122;SDS011;548;48.778;9.252;2022-10-26T14:41:08;14.80;;;13.80;;
1122;SDS011;548;48.778;9.252;2022-10-26T14:43:38;14.83;;;13.83;;
1122;SDS011;548;48.778;9.252;2022-10-26T14:46:04;14.27;;;13.27;;
1122;SDS011;548;48.778;9.252;2022-10-26T14:48:32;14.33;;;13.53;;
1122;SDS011;548;48.778;9.252;2022-10-26T14:51:01;15.03;;;14.03;;
1122;SDS011;548;48.778;9.252;2022-10-26T14:53:31;13.43;;;12.90;;
1122;SDS011;548;48.778;9.252;2022-10-26T14:56:02;14.53;;;13.73;;
1122;SDS011;548;48.778;9.252;2022-10-26T14:58:31;15.10;;;14.00;;
1122;SDS011;548;48.778;9.252;2022-10-26T15:01:21;14.80;;;14.10;;
1122;SDS011;548;48.778;9.252;2022-10-26T15:03:54;14.27;;;13.57;;
1122;SDS011;548;48.778;9.252;2022-10-26T15:06:29;15.40;;;14.23;;
1122;SDS011;548;48.778;9.252;2022-10-26T15:09:30;15.33;;;14.63;;
1122;SDS011;548;48.778;9.252;2022-10-26T15:11:58;14.57;;;13.57;;
1122;SDS011;548;48.778;9.252;2022-10-26T15:14:26;14.70;;;14.00;;
1122;SDS011;548;48.778;9.252;2022-10-26T15:16:55;14.90;;;14.30;;
1122;SDS011;548;48.778;9.252;2022-10-26T15:19:23;15.27;;;14.47;;
1122;SDS011;548;48.778;9.252;2022-10-26T15:21:52;16.43;;;15.17;;
1122;SDS011;548;48.778;9.252;2022-10-26T15:24:23;13.53;;;12.93;;
1122;SDS011;548;48.778;9.252;2022-10-26T15:26:53;15.67;;;14.67;;
1122;SDS011;548;48.778;9.252;2022-10-26T15:32:28;15.10;;;14.00;;
1122;SDS011;548;48.778;9.252;2022-10-26T15:37:52;15.97;;;15.27;;
1122;SDS011;548;48.778;9.252;2022-10-26T15:40:20;15.23;;;14.43;;
1122;SDS011;548;48.778;9.252;2022-10-26T15:42:48;14.30;;;13.50;;
1122;SDS011;548;48.778;9.252;2022-10-26T15:45:17;14.90;;;14.10;;
1122;SDS011;548;48.778;9.252;2022-10-26T15:47:47;14.80;;;13.67;;
1122;SDS011;548;48.778;9.252;2022-10-26T15:50:16;16.57;;;14.93;;
1122;SDS011;548;48.778;9.252;2022-10-26T15:52:44;14.23;;;13.27;;
1122;SDS011;548;48.778;9.252;2022-10-26T15:55:11;15.13;;;14.47;;